createdAt,value
2023-02-03T00:00:08.701Z,59.78
2023-02-03T00:01:08.698Z,61.55
2023-02-03T00:02:08.761Z,58.33
2023-02-03T00:03:08.732Z,60.10
2023-02-03T00:04:08.701Z,65.26
2023-02-03T00:05:08.728Z,57.36
2023-02-03T00:06:08.669Z,58.65
2023-02-03T00:07:08.668Z,60.10
2023-02-03T00:08:08.659Z,56.88
2023-02-03T00:09:08.664Z,59.14
2023-02-03T00:10:08.635Z,60.59
2023-02-03T00:11:08.629Z,61.87
2023-02-03T00:12:08.640Z,56.88
2023-02-03T00:13:08.626Z,54.79
2023-02-03T00:14:08.627Z,60.59
2023-02-03T00:15:08.596Z,59.46
2023-02-03T00:16:09.672Z,56.40
2023-02-03T00:17:08.616Z,59.46
2023-02-03T00:18:08.583Z,54.79
2023-02-03T00:19:08.626Z,60.10
2023-02-03T00:20:08.573Z,57.52
2023-02-03T00:21:08.586Z,57.69
2023-02-03T00:22:08.555Z,58.49
2023-02-03T00:23:08.561Z,53.82
2023-02-03T00:24:08.543Z,59.94
2023-02-03T00:25:08.533Z,64.94
2023-02-03T00:26:08.530Z,64.13
2023-02-03T00:27:08.539Z,67.84
2023-02-03T00:28:08.662Z,61.87
2023-02-03T00:29:09.037Z,64.78
2023-02-03T00:30:08.497Z,64.13
2023-02-03T00:31:08.503Z,63.00
2023-02-03T00:32:08.715Z,61.07
2023-02-03T00:33:08.489Z,63.97
2023-02-03T00:34:08.487Z,61.39
2023-02-03T00:35:08.463Z,60.10
2023-02-03T00:36:08.470Z,61.71
2023-02-03T00:37:08.443Z,58.81
2023-02-03T00:38:08.438Z,58.49
2023-02-03T00:39:08.453Z,64.45
2023-02-03T00:40:08.437Z,58.33
2023-02-03T00:41:08.438Z,59.30
2023-02-03T00:42:08.415Z,57.52
2023-02-03T00:43:08.405Z,57.20
2023-02-03T00:44:08.403Z,59.62
2023-02-03T00:45:09.398Z,63.81
2023-02-03T00:46:08.432Z,48.18
2023-02-03T00:47:08.418Z,58.01
2023-02-03T00:48:08.418Z,64.13
2023-02-03T00:49:08.400Z,55.27
2023-02-03T00:50:08.357Z,68.16
2023-02-03T00:51:08.420Z,60.91
2023-02-03T00:52:08.360Z,64.29
2023-02-03T00:53:08.353Z,63.16
2023-02-03T00:54:08.376Z,65.90
2023-02-03T00:55:08.328Z,61.55
2023-02-03T00:56:08.328Z,63.97
2023-02-03T00:57:08.312Z,58.65
2023-02-03T00:58:08.294Z,63.65
2023-02-03T00:59:08.302Z,61.87
2023-02-03T01:00:08.286Z,62.68
2023-02-03T01:01:08.419Z,60.42
2023-02-03T01:02:08.391Z,59.30
2023-02-03T01:03:08.269Z,49.47
2023-02-03T01:04:08.271Z,58.97
2023-02-03T01:05:08.264Z,60.42
2023-02-03T01:06:08.255Z,60.59
2023-02-03T01:07:08.233Z,60.42
2023-02-03T01:08:08.234Z,56.88
2023-02-03T01:09:08.233Z,59.94
2023-02-03T01:10:08.216Z,65.10
2023-02-03T01:11:08.250Z,56.24
2023-02-03T01:12:08.220Z,62.52
2023-02-03T01:13:08.204Z,62.20
2023-02-03T01:14:08.204Z,55.27
2023-02-03T01:15:08.196Z,55.11
2023-02-03T01:16:08.279Z,59.46
2023-02-03T01:17:08.174Z,60.91
2023-02-03T01:18:08.172Z,60.26
2023-02-03T01:19:08.167Z,61.71
2023-02-03T01:20:08.181Z,62.68
2023-02-03T01:21:08.163Z,59.30
2023-02-03T01:22:08.140Z,59.14
2023-02-03T01:23:08.271Z,60.10
2023-02-03T01:24:08.132Z,48.82
2023-02-03T01:25:08.125Z,50.27
2023-02-03T01:26:08.120Z,60.75
2023-02-03T01:27:08.110Z,49.47
2023-02-03T01:28:08.169Z,62.68
2023-02-03T01:29:08.096Z,60.75
2023-02-03T01:30:08.103Z,62.68
2023-02-03T01:31:08.192Z,61.87
2023-02-03T01:32:08.118Z,53.82
2023-02-03T01:33:08.089Z,48.18
2023-02-03T01:34:08.068Z,55.27
2023-02-03T01:35:08.057Z,56.72
2023-02-03T01:36:08.068Z,55.59
2023-02-03T01:37:08.034Z,60.59
2023-02-03T01:38:08.029Z,59.94
2023-02-03T01:39:08.025Z,60.75
2023-02-03T01:40:08.026Z,57.85
2023-02-03T01:41:08.019Z,55.75
2023-02-03T01:42:08.001Z,57.85
2023-02-03T01:43:07.998Z,58.97
2023-02-03T01:44:07.990Z,58.81
2023-02-03T01:45:07.985Z,61.07
2023-02-03T01:46:07.996Z,50.92
2023-02-03T01:47:07.967Z,63.33
2023-02-03T01:48:07.961Z,62.68
2023-02-03T01:49:07.962Z,59.62
2023-02-03T01:50:07.959Z,59.62
2023-02-03T01:51:07.953Z,63.00
2023-02-03T01:52:07.947Z,62.04
2023-02-03T01:53:07.927Z,53.17
2023-02-03T01:54:07.923Z,63.00
2023-02-03T01:55:07.920Z,61.55
2023-02-03T01:56:07.920Z,56.56
2023-02-03T01:57:07.905Z,51.88
2023-02-03T01:58:07.901Z,53.66
2023-02-03T01:59:07.879Z,61.07
2023-02-03T02:00:07.877Z,63.16
2023-02-03T02:01:07.936Z,59.14
2023-02-03T02:02:07.893Z,63.65
2023-02-03T02:03:07.861Z,62.20
2023-02-03T02:04:07.850Z,48.02
2023-02-03T02:05:07.849Z,57.52
2023-02-03T02:06:07.847Z,59.94
2023-02-03T02:07:07.843Z,56.88
2023-02-03T02:08:07.822Z,58.49
2023-02-03T02:09:07.809Z,60.10
2023-02-03T02:10:07.803Z,60.42
2023-02-03T02:11:07.796Z,59.30
2023-02-03T02:12:07.797Z,55.75
2023-02-03T02:13:07.808Z,59.94
2023-02-03T02:14:07.780Z,63.16
2023-02-03T02:15:07.784Z,60.10
2023-02-03T02:16:07.826Z,55.43
2023-02-03T02:17:07.780Z,63.33
2023-02-03T02:18:07.748Z,53.17
2023-02-03T02:19:07.748Z,57.69
2023-02-03T02:20:07.741Z,62.20
2023-02-03T02:21:07.725Z,60.91
2023-02-03T02:22:07.734Z,61.39
2023-02-03T02:23:07.729Z,60.42
2023-02-03T02:24:07.710Z,58.49
2023-02-03T02:25:07.695Z,59.62
2023-02-03T02:26:07.704Z,56.40
2023-02-03T02:27:07.676Z,60.26
2023-02-03T02:28:07.728Z,55.43
2023-02-03T02:29:07.676Z,57.20
2023-02-03T02:30:07.674Z,60.59
2023-02-03T02:31:07.792Z,56.07
2023-02-03T02:32:07.652Z,53.66
2023-02-03T02:33:07.652Z,51.24
2023-02-03T02:34:07.642Z,59.94
2023-02-03T02:35:07.632Z,61.39
2023-02-03T02:36:07.625Z,60.91
2023-02-03T02:37:07.626Z,61.07
2023-02-03T02:38:07.653Z,57.04
2023-02-03T02:39:07.690Z,56.56
2023-02-03T02:40:07.603Z,57.52
2023-02-03T02:41:07.595Z,56.56
2023-02-03T02:42:07.599Z,59.30
2023-02-03T02:43:07.590Z,51.56
2023-02-03T02:44:07.577Z,60.59
2023-02-03T02:45:07.586Z,56.56
2023-02-03T02:46:07.624Z,60.91
2023-02-03T02:47:07.556Z,61.07
2023-02-03T02:48:07.546Z,55.59
2023-02-03T02:49:07.552Z,50.43
2023-02-03T02:50:07.535Z,60.10
2023-02-03T02:51:07.556Z,61.71
2023-02-03T02:52:07.532Z,53.98
2023-02-03T02:53:07.520Z,54.62
2023-02-03T02:54:07.516Z,49.31
2023-02-03T02:55:07.494Z,55.43
2023-02-03T02:56:07.489Z,64.45
2023-02-03T02:57:07.494Z,63.16
2023-02-03T02:58:07.494Z,58.97
2023-02-03T02:59:07.513Z,52.37
2023-02-03T03:00:07.492Z,50.27
2023-02-03T03:01:07.482Z,57.69
2023-02-03T03:02:07.457Z,60.59
2023-02-03T03:03:07.449Z,59.94
2023-02-03T03:04:07.435Z,59.62
2023-02-03T03:05:08.477Z,58.01
2023-02-03T03:06:07.437Z,60.75
2023-02-03T03:07:07.422Z,57.36
2023-02-03T03:08:07.432Z,56.40
2023-02-03T03:09:07.409Z,57.69
2023-02-03T03:10:07.419Z,64.61
2023-02-03T03:11:07.398Z,59.62
2023-02-03T03:12:07.389Z,62.04
2023-02-03T03:13:07.377Z,61.07
2023-02-03T03:14:07.374Z,61.71
2023-02-03T03:15:07.381Z,53.33
2023-02-03T03:16:07.390Z,58.81
2023-02-03T03:17:07.358Z,58.49
2023-02-03T03:18:07.347Z,61.87
2023-02-03T03:19:07.343Z,56.88
2023-02-03T03:20:07.354Z,61.23
2023-02-03T03:21:07.321Z,59.62
2023-02-03T03:22:07.325Z,58.01
2023-02-03T03:23:07.311Z,62.68
2023-02-03T03:24:07.303Z,64.61
2023-02-03T03:25:07.301Z,61.07
2023-02-03T03:26:07.296Z,51.56
2023-02-03T03:27:07.283Z,61.07
2023-02-03T03:28:07.334Z,59.62
2023-02-03T03:29:07.282Z,57.69
2023-02-03T03:30:07.278Z,59.62
2023-02-03T03:31:07.380Z,64.13
2023-02-03T03:32:07.296Z,61.07
2023-02-03T03:33:07.238Z,58.17
2023-02-03T03:34:07.237Z,65.58
2023-02-03T03:35:07.250Z,60.59
2023-02-03T03:36:07.225Z,63.65
2023-02-03T03:37:07.203Z,61.39
2023-02-03T03:38:07.218Z,61.07
2023-02-03T03:39:07.194Z,65.42
2023-02-03T03:40:07.200Z,63.49
2023-02-03T03:41:07.183Z,62.20
2023-02-03T03:42:07.175Z,63.33
2023-02-03T03:43:07.167Z,64.78
2023-02-03T03:44:07.142Z,65.58
2023-02-03T03:45:07.162Z,62.84
2023-02-03T03:46:07.157Z,62.20
2023-02-03T03:47:07.139Z,62.20
2023-02-03T03:48:07.132Z,66.06
2023-02-03T03:49:07.135Z,63.65
2023-02-03T03:50:07.130Z,60.26
2023-02-03T03:51:07.128Z,63.33
2023-02-03T03:52:07.095Z,62.04
2023-02-03T03:53:07.099Z,59.78
2023-02-03T03:54:07.095Z,62.20
2023-02-03T03:55:07.078Z,62.36
2023-02-03T03:56:07.075Z,65.26
2023-02-03T03:57:07.067Z,63.33
2023-02-03T03:58:07.055Z,61.07
2023-02-03T03:59:07.063Z,64.13
2023-02-03T04:00:07.037Z,62.68
2023-02-03T04:01:07.080Z,62.68
2023-02-03T04:02:07.214Z,61.55
2023-02-03T04:03:07.074Z,62.20
2023-02-03T04:04:07.015Z,65.10
2023-02-03T04:05:07.006Z,69.93
2023-02-03T04:06:07.003Z,59.94
2023-02-03T04:07:07.002Z,58.65
2023-02-03T04:08:08.127Z,62.84
2023-02-03T04:09:06.997Z,61.87
2023-02-03T04:10:06.971Z,62.36
2023-02-03T04:11:06.975Z,61.39
2023-02-03T04:12:07.010Z,59.62
2023-02-03T04:13:06.959Z,66.23
2023-02-03T04:14:06.950Z,62.36
2023-02-03T04:15:06.939Z,62.20
2023-02-03T04:16:07.013Z,61.71
2023-02-03T04:17:06.922Z,63.49
2023-02-03T04:18:06.931Z,61.39
2023-02-03T04:19:08.425Z,62.20
2023-02-03T04:20:07.895Z,61.55
2023-02-03T04:21:06.902Z,62.84
2023-02-03T04:22:06.887Z,65.58
2023-02-03T04:23:06.893Z,65.58
2023-02-03T04:24:06.881Z,62.68
2023-02-03T04:25:06.875Z,65.10
2023-02-03T04:26:06.862Z,63.65
2023-02-03T04:27:06.854Z,63.65
2023-02-03T04:28:06.909Z,62.84
2023-02-03T04:29:06.836Z,65.42
2023-02-03T04:30:06.827Z,67.35
2023-02-03T04:31:06.904Z,63.81
2023-02-03T04:32:06.867Z,64.45
2023-02-03T04:33:06.962Z,64.45
2023-02-03T04:34:06.801Z,64.45
2023-02-03T04:35:06.794Z,65.10
2023-02-03T04:36:06.787Z,63.65
2023-02-03T04:37:06.798Z,63.81
2023-02-03T04:38:06.937Z,63.65
2023-02-03T04:39:06.767Z,64.78
2023-02-03T04:40:06.775Z,63.97
2023-02-03T04:41:06.764Z,65.42
2023-02-03T04:42:06.754Z,63.65
2023-02-03T04:43:06.747Z,63.49
2023-02-03T04:44:06.732Z,63.16
2023-02-03T04:45:06.734Z,64.29
2023-02-03T04:46:06.812Z,65.10
2023-02-03T04:47:06.716Z,63.16
2023-02-03T04:48:06.723Z,63.49
2023-02-03T04:49:06.702Z,63.16
2023-02-03T04:50:06.724Z,63.97
2023-02-03T04:51:06.682Z,65.26
2023-02-03T04:52:06.683Z,65.58
2023-02-03T04:53:06.697Z,68.64
2023-02-03T04:54:06.671Z,65.10
2023-02-03T04:55:06.652Z,64.45
2023-02-03T04:56:06.656Z,68.32
2023-02-03T04:57:06.649Z,66.23
2023-02-03T04:58:06.640Z,69.29
2023-02-03T04:59:06.644Z,63.33
2023-02-03T05:00:06.625Z,63.97
2023-02-03T05:01:06.670Z,68.00
2023-02-03T05:02:06.631Z,66.06
2023-02-03T05:03:06.717Z,65.10
2023-02-03T05:04:06.582Z,64.13
2023-02-03T05:05:06.598Z,69.77
2023-02-03T05:06:06.590Z,62.36
2023-02-03T05:07:06.576Z,68.16
2023-02-03T05:08:06.587Z,66.23
2023-02-03T05:09:06.564Z,66.55
2023-02-03T05:10:07.550Z,68.80
2023-02-03T05:11:06.785Z,64.29
2023-02-03T05:12:07.538Z,65.42
2023-02-03T05:13:06.537Z,65.58
2023-02-03T05:14:06.539Z,67.35
2023-02-03T05:15:06.517Z,67.03
2023-02-03T05:16:06.530Z,63.65
2023-02-03T05:17:06.509Z,67.68
2023-02-03T05:18:06.510Z,65.42
2023-02-03T05:19:06.514Z,63.65
2023-02-03T05:20:06.478Z,66.55
2023-02-03T05:21:06.474Z,66.23
2023-02-03T05:22:06.472Z,64.13
2023-02-03T05:23:06.449Z,62.68
2023-02-03T05:24:06.473Z,67.35
2023-02-03T05:25:06.461Z,67.19
2023-02-03T05:26:06.457Z,67.51
2023-02-03T05:27:06.468Z,66.23
2023-02-03T05:28:06.526Z,65.26
2023-02-03T05:29:06.452Z,65.10
2023-02-03T05:30:06.419Z,69.61
2023-02-03T05:31:06.474Z,64.29
2023-02-03T05:32:06.446Z,65.42
2023-02-03T05:33:06.396Z,65.58
2023-02-03T05:34:06.418Z,67.35
2023-02-03T05:35:06.391Z,69.13
2023-02-03T05:36:06.381Z,67.84
2023-02-03T05:37:06.374Z,66.06
2023-02-03T05:38:06.361Z,66.55
2023-02-03T05:39:06.367Z,66.87
2023-02-03T05:40:06.356Z,68.16
2023-02-03T05:41:06.347Z,70.58
2023-02-03T05:42:06.339Z,68.00
2023-02-03T05:43:06.320Z,67.51
2023-02-03T05:44:06.314Z,68.00
2023-02-03T05:45:06.325Z,67.03
2023-02-03T05:46:07.357Z,67.84
2023-02-03T05:47:06.311Z,67.35
2023-02-03T05:48:06.290Z,68.00
2023-02-03T05:49:06.277Z,66.87
2023-02-03T05:50:06.282Z,69.29
2023-02-03T05:51:06.305Z,66.06
2023-02-03T05:52:06.267Z,68.16
2023-02-03T05:53:06.255Z,66.23
2023-02-03T05:54:06.241Z,69.61
2023-02-03T05:55:06.239Z,65.90
2023-02-03T05:56:06.254Z,64.94
2023-02-03T05:57:06.227Z,67.03
2023-02-03T05:58:06.256Z,65.42
2023-02-03T05:59:06.219Z,65.58
2023-02-03T06:00:06.208Z,65.58
2023-02-03T06:01:06.211Z,70.09
2023-02-03T06:02:06.201Z,71.22
2023-02-03T06:03:06.203Z,71.22
2023-02-03T06:04:06.391Z,70.74
2023-02-03T06:05:06.170Z,72.19
2023-02-03T06:06:06.186Z,69.13
2023-02-03T06:07:06.157Z,67.68
2023-02-03T06:08:07.147Z,67.03
2023-02-03T06:09:06.144Z,66.55
2023-02-03T06:10:06.146Z,66.71
2023-02-03T06:11:06.134Z,65.74
2023-02-03T06:12:06.168Z,66.39
2023-02-03T06:13:06.120Z,67.03
2023-02-03T06:14:06.113Z,68.64
2023-02-03T06:15:06.102Z,69.93
2023-02-03T06:16:06.093Z,66.23
2023-02-03T06:17:06.089Z,66.87
2023-02-03T06:18:06.083Z,67.84
2023-02-03T06:19:06.068Z,67.84
2023-02-03T06:20:06.076Z,66.06
2023-02-03T06:21:06.059Z,66.71
2023-02-03T06:22:06.072Z,66.55
2023-02-03T06:23:06.037Z,67.03
2023-02-03T06:24:06.042Z,66.55
2023-02-03T06:25:06.035Z,66.23
2023-02-03T06:26:06.021Z,67.19
2023-02-03T06:27:06.019Z,66.23
2023-02-03T06:28:06.054Z,65.58
2023-02-03T06:29:06.009Z,66.87
2023-02-03T06:30:05.986Z,66.55
2023-02-03T06:31:06.033Z,65.58
2023-02-03T06:32:06.028Z,63.97
2023-02-03T06:33:05.981Z,66.23
2023-02-03T06:34:05.963Z,66.87
2023-02-03T06:35:05.964Z,65.74
2023-02-03T06:36:05.951Z,66.71
2023-02-03T06:37:06.012Z,66.39
2023-02-03T06:38:05.930Z,64.78
2023-02-03T06:39:05.939Z,67.84
2023-02-03T06:40:05.925Z,69.61
2023-02-03T06:41:05.923Z,70.42
2023-02-03T06:42:05.941Z,68.32
2023-02-03T06:43:05.913Z,67.19
2023-02-03T06:44:05.898Z,67.51
2023-02-03T06:45:05.900Z,66.23
2023-02-03T06:46:05.925Z,65.90
2023-02-03T06:47:05.904Z,67.51
2023-02-03T06:48:05.875Z,66.23
2023-02-03T06:49:05.873Z,67.51
2023-02-03T06:50:05.860Z,69.45
2023-02-03T06:51:05.849Z,65.74
2023-02-03T06:52:05.879Z,65.42
2023-02-03T06:53:06.575Z,67.03
2023-02-03T06:54:05.833Z,66.06
2023-02-03T06:55:05.817Z,66.23
2023-02-03T06:56:05.810Z,65.74
2023-02-03T06:57:05.800Z,67.19
2023-02-03T06:58:05.804Z,68.96
2023-02-03T06:59:05.794Z,66.87
2023-02-03T07:00:05.869Z,66.71
2023-02-03T07:01:05.804Z,66.55
2023-02-03T07:02:05.776Z,66.06
2023-02-03T07:03:05.828Z,65.26
2023-02-03T07:04:05.761Z,64.61
2023-02-03T07:05:05.782Z,66.06
2023-02-03T07:06:05.740Z,68.00
2023-02-03T07:07:05.731Z,67.03
2023-02-03T07:08:05.740Z,68.96
2023-02-03T07:09:05.718Z,66.55
2023-02-03T07:10:05.725Z,68.48
2023-02-03T07:11:05.700Z,66.23
2023-02-03T07:12:05.682Z,65.42
2023-02-03T07:13:06.710Z,64.61
2023-02-03T07:14:05.688Z,66.06
2023-02-03T07:15:05.668Z,66.87
2023-02-03T07:16:05.755Z,68.16
2023-02-03T07:17:05.657Z,67.19
2023-02-03T07:18:05.649Z,69.61
2023-02-03T07:19:05.658Z,67.84
2023-02-03T07:20:05.727Z,65.74
2023-02-03T07:21:05.664Z,66.87
2023-02-03T07:22:05.613Z,66.55
2023-02-03T07:23:05.626Z,64.94
2023-02-03T07:24:05.605Z,65.90
2023-02-03T07:25:05.608Z,64.94
2023-02-03T07:26:05.600Z,64.61
2023-02-03T07:27:05.593Z,65.42
2023-02-03T07:28:05.626Z,66.06
2023-02-03T07:29:05.617Z,69.13
2023-02-03T07:30:05.635Z,66.06
2023-02-03T07:31:05.665Z,65.58
2023-02-03T07:32:05.663Z,67.19
2023-02-03T07:33:05.537Z,64.94
2023-02-03T07:34:05.536Z,68.96
2023-02-03T07:35:05.555Z,67.19
2023-02-03T07:36:05.525Z,69.29
2023-02-03T07:37:05.527Z,65.42
2023-02-03T07:38:05.508Z,65.42
2023-02-03T07:39:05.529Z,66.23
2023-02-03T07:40:05.496Z,67.03
2023-02-03T07:41:05.496Z,64.61
2023-02-03T07:42:05.506Z,64.78
2023-02-03T07:43:05.475Z,65.90
2023-02-03T07:44:05.535Z,62.84
2023-02-03T07:45:05.458Z,66.39
2023-02-03T07:46:05.583Z,67.03
2023-02-03T07:47:05.493Z,64.13
2023-02-03T07:48:05.444Z,66.55
2023-02-03T07:49:05.452Z,67.51
2023-02-03T07:50:05.429Z,66.06
2023-02-03T07:51:05.452Z,67.03
2023-02-03T07:52:05.417Z,66.39
2023-02-03T07:53:05.429Z,68.48
2023-02-03T07:54:05.416Z,63.49
2023-02-03T07:55:05.405Z,65.58
2023-02-03T07:56:05.395Z,66.39
2023-02-03T07:57:05.365Z,65.58
2023-02-03T07:58:05.382Z,67.51
2023-02-03T07:59:05.423Z,64.61
2023-02-03T08:00:05.421Z,64.45
2023-02-03T08:01:05.359Z,65.42
2023-02-03T08:02:05.385Z,64.78
2023-02-03T08:03:05.364Z,64.45
2023-02-03T08:04:05.402Z,66.23
2023-02-03T08:05:05.324Z,67.19
2023-02-03T08:06:05.320Z,63.65
2023-02-03T08:07:05.307Z,67.03
2023-02-03T08:08:05.327Z,66.06
2023-02-03T08:09:05.335Z,63.16
2023-02-03T08:10:05.284Z,65.26
2023-02-03T08:11:05.283Z,65.58
2023-02-03T08:12:05.273Z,67.03
2023-02-03T08:13:05.263Z,66.23
2023-02-03T08:14:05.280Z,66.71
2023-02-03T08:15:05.255Z,64.13
2023-02-03T08:16:05.264Z,66.23
2023-02-03T08:17:05.252Z,64.78
2023-02-03T08:18:05.240Z,66.23
2023-02-03T08:19:05.215Z,63.33
2023-02-03T08:20:05.215Z,67.51
2023-02-03T08:21:05.229Z,65.58
2023-02-03T08:22:05.216Z,65.10
2023-02-03T08:23:05.199Z,66.55
2023-02-03T08:24:05.195Z,66.23
2023-02-03T08:25:05.181Z,64.61
2023-02-03T08:26:05.171Z,63.97
2023-02-03T08:27:05.188Z,65.58
2023-02-03T08:28:05.171Z,65.90
2023-02-03T08:29:05.153Z,61.87
2023-02-03T08:30:05.220Z,67.51
2023-02-03T08:31:06.293Z,64.94
2023-02-03T08:32:06.104Z,63.33
2023-02-03T08:33:06.121Z,66.71
2023-02-03T08:34:05.135Z,65.90
2023-02-03T08:35:05.113Z,69.29
2023-02-03T08:36:05.121Z,63.16
2023-02-03T08:37:05.105Z,63.00
2023-02-03T08:38:05.098Z,63.65
2023-02-03T08:39:05.081Z,65.26
2023-02-03T08:40:05.079Z,66.06
2023-02-03T08:41:05.087Z,67.68
2023-02-03T08:42:05.072Z,69.77
2023-02-03T08:43:05.065Z,63.97
2023-02-03T08:44:05.071Z,65.74
2023-02-03T08:45:05.410Z,65.26
2023-02-03T08:46:05.118Z,66.87
2023-02-03T08:47:05.050Z,65.90
2023-02-03T08:48:05.033Z,66.06
2023-02-03T08:49:05.023Z,66.23
2023-02-03T08:50:05.011Z,65.42
2023-02-03T08:51:04.995Z,74.44
2023-02-03T08:52:05.001Z,65.74
2023-02-03T08:53:05.012Z,66.06
2023-02-03T08:54:04.975Z,65.74
2023-02-03T08:55:04.998Z,64.29
2023-02-03T08:56:05.001Z,67.84
2023-02-03T08:57:05.009Z,65.90
2023-02-03T08:58:04.964Z,65.74
2023-02-03T08:59:04.942Z,64.13
2023-02-03T09:00:05.018Z,64.29
2023-02-03T09:01:04.992Z,66.71
2023-02-03T09:02:04.949Z,68.16
2023-02-03T09:03:04.914Z,64.29
2023-02-03T09:04:04.903Z,64.94
2023-02-03T09:05:04.924Z,66.71
2023-02-03T09:06:04.899Z,64.94
2023-02-03T09:07:04.936Z,66.87
2023-02-03T09:08:04.887Z,64.61
2023-02-03T09:09:04.872Z,64.78
2023-02-03T09:10:04.872Z,67.35
2023-02-03T09:11:04.859Z,67.35
2023-02-03T09:12:04.870Z,65.90
2023-02-03T09:13:04.851Z,67.19
2023-02-03T09:14:06.663Z,66.87
2023-02-03T09:15:04.844Z,66.87
2023-02-03T09:16:04.829Z,64.61
2023-02-03T09:17:04.824Z,65.26
2023-02-03T09:18:04.837Z,66.23
2023-02-03T09:19:04.801Z,67.35
2023-02-03T09:20:04.837Z,66.06
2023-02-03T09:21:04.778Z,68.48
2023-02-03T09:22:04.804Z,63.65
2023-02-03T09:23:04.798Z,66.23
2023-02-03T09:24:04.775Z,66.55
2023-02-03T09:25:04.816Z,65.42
2023-02-03T09:26:04.754Z,65.58
2023-02-03T09:27:04.748Z,65.90
2023-02-03T09:28:04.868Z,63.97
2023-02-03T09:29:04.720Z,64.78
2023-02-03T09:30:04.771Z,66.87
2023-02-03T09:31:04.825Z,64.29
2023-02-03T09:32:04.756Z,66.06
2023-02-03T09:33:04.716Z,68.00
2023-02-03T09:34:04.693Z,65.42
2023-02-03T09:35:04.709Z,65.42
2023-02-03T09:36:04.682Z,67.84
2023-02-03T09:37:04.699Z,65.74
2023-02-03T09:38:04.689Z,65.42
2023-02-03T09:39:04.653Z,64.29
2023-02-03T09:40:04.661Z,66.39
2023-02-03T09:41:11.643Z,64.45
2023-02-03T09:42:06.643Z,65.74
2023-02-03T09:43:04.652Z,65.90
2023-02-03T09:44:04.633Z,65.58
2023-02-03T09:45:04.647Z,67.03
2023-02-03T09:46:04.671Z,67.03
2023-02-03T09:47:04.598Z,66.55
2023-02-03T09:48:04.595Z,68.00
2023-02-03T09:49:04.572Z,67.03
2023-02-03T09:50:04.674Z,65.58
2023-02-03T09:51:04.570Z,65.90
2023-02-03T09:52:04.579Z,66.23
2023-02-03T09:53:04.557Z,66.87
2023-02-03T09:54:04.551Z,66.39
2023-02-03T09:55:04.540Z,65.26
2023-02-03T09:56:04.547Z,66.55
2023-02-03T09:57:04.547Z,66.55
2023-02-03T09:58:04.514Z,66.87
2023-02-03T09:59:04.529Z,68.00
2023-02-03T10:00:04.525Z,64.94
2023-02-03T10:01:04.573Z,64.94
2023-02-03T10:02:04.523Z,67.51
2023-02-03T10:03:04.491Z,65.42
2023-02-03T10:04:04.479Z,65.74
2023-02-03T10:05:04.478Z,64.78
2023-02-03T10:06:04.480Z,66.39
2023-02-03T10:07:04.506Z,66.06
2023-02-03T10:08:04.472Z,65.58
2023-02-03T10:09:04.442Z,66.23
2023-02-03T10:10:04.447Z,67.19
2023-02-03T10:11:04.448Z,67.19
2023-02-03T10:12:04.424Z,65.58
2023-02-03T10:13:04.463Z,66.06
2023-02-03T10:14:04.420Z,67.19
2023-02-03T10:15:04.403Z,66.87
2023-02-03T10:16:04.438Z,65.26
2023-02-03T10:17:04.470Z,65.74
2023-02-03T10:18:04.379Z,66.55
2023-02-03T10:19:04.434Z,64.61
2023-02-03T10:20:04.365Z,66.55
2023-02-03T10:21:04.394Z,68.48
2023-02-03T10:22:05.347Z,64.78
2023-02-03T10:23:04.340Z,65.90
2023-02-03T10:24:04.338Z,66.71
2023-02-03T10:25:04.327Z,65.74
2023-02-03T10:26:04.334Z,65.42
2023-02-03T10:27:04.311Z,67.19
2023-02-03T10:28:04.320Z,65.74
2023-02-03T10:29:04.300Z,66.55
2023-02-03T10:30:04.297Z,64.29
2023-02-03T10:31:04.428Z,67.19
2023-02-03T10:32:04.374Z,65.42
2023-02-03T10:33:04.284Z,66.23
2023-02-03T10:34:04.262Z,66.23
2023-02-03T10:35:04.262Z,67.68
2023-02-03T10:36:04.286Z,67.84
2023-02-03T10:37:04.243Z,67.68
2023-02-03T10:38:04.250Z,67.03
2023-02-03T10:39:04.307Z,65.74
2023-02-03T10:40:04.230Z,67.51
2023-02-03T10:41:04.332Z,65.90
2023-02-03T10:42:04.223Z,65.26
2023-02-03T10:43:04.211Z,66.55
2023-02-03T10:44:04.206Z,69.13
2023-02-03T10:45:04.194Z,65.58
2023-02-03T10:46:04.237Z,67.68
2023-02-03T10:47:04.175Z,67.35
2023-02-03T10:48:04.170Z,68.48
2023-02-03T10:49:04.216Z,65.90
2023-02-03T10:50:04.191Z,65.10
2023-02-03T10:51:04.146Z,67.51
2023-02-03T10:52:04.139Z,65.42
2023-02-03T10:53:04.142Z,69.13
2023-02-03T10:54:04.159Z,66.39
2023-02-03T10:55:04.125Z,66.39
2023-02-03T10:56:04.132Z,65.90
2023-02-03T10:57:04.118Z,65.42
2023-02-03T10:58:04.104Z,64.78
2023-02-03T10:59:04.109Z,65.26
2023-02-03T11:00:04.083Z,67.35
2023-02-03T11:01:04.087Z,66.71
2023-02-03T11:02:04.073Z,69.45
2023-02-03T11:03:04.193Z,66.55
2023-02-03T11:04:04.141Z,64.94
2023-02-03T11:05:04.065Z,65.26
2023-02-03T11:06:04.047Z,68.00
2023-02-03T11:07:04.096Z,66.71
2023-02-03T11:08:04.048Z,65.90
2023-02-03T11:09:04.034Z,66.06
2023-02-03T11:10:04.020Z,66.23
2023-02-03T11:11:04.029Z,64.61
2023-02-03T11:12:04.017Z,67.68
2023-02-03T11:13:04.025Z,65.26
2023-02-03T11:14:04.051Z,67.03
2023-02-03T11:15:03.994Z,64.61
2023-02-03T11:16:03.998Z,65.90
2023-02-03T11:17:03.972Z,65.58
2023-02-03T11:18:03.982Z,65.26
2023-02-03T11:19:03.971Z,66.71
2023-02-03T11:20:03.983Z,64.45
2023-02-03T11:21:03.941Z,66.87
2023-02-03T11:22:03.948Z,68.64
2023-02-03T11:23:03.925Z,66.71
2023-02-03T11:24:03.949Z,67.68
2023-02-03T11:25:03.927Z,67.68
2023-02-03T11:26:03.925Z,65.58
2023-02-03T11:27:03.910Z,66.87
2023-02-03T11:28:03.945Z,67.51
2023-02-03T11:29:03.885Z,66.87
2023-02-03T11:30:03.905Z,66.06
2023-02-03T11:31:03.992Z,66.23
2023-02-03T11:32:03.959Z,63.81
2023-02-03T11:33:03.869Z,66.55
2023-02-03T11:34:03.864Z,64.78
2023-02-03T11:35:03.837Z,67.35
2023-02-03T11:36:03.849Z,65.10
2023-02-03T11:37:03.840Z,66.71
2023-02-03T11:38:03.826Z,66.06
2023-02-03T11:39:03.812Z,67.03
2023-02-03T11:40:03.808Z,64.61
2023-02-03T11:41:03.813Z,65.90
2023-02-03T11:42:03.809Z,65.42
2023-02-03T11:43:03.797Z,66.71
2023-02-03T11:44:03.796Z,67.03
2023-02-03T11:45:03.786Z,65.58
2023-02-03T11:46:03.813Z,64.45
2023-02-03T11:47:03.762Z,65.58
2023-02-03T11:48:03.762Z,65.58
2023-02-03T11:49:03.755Z,65.26
2023-02-03T11:50:03.766Z,66.55
2023-02-03T11:51:03.748Z,66.71
2023-02-03T11:52:03.726Z,65.42
2023-02-03T11:53:03.725Z,65.58
2023-02-03T11:54:03.760Z,66.06
2023-02-03T11:55:03.703Z,65.58
2023-02-03T11:56:03.731Z,67.03
2023-02-03T11:57:03.705Z,68.32
2023-02-03T11:58:03.680Z,67.19
2023-02-03T11:59:03.693Z,64.13
2023-02-03T12:00:03.677Z,65.42
2023-02-03T12:01:03.692Z,68.32
2023-02-03T12:02:03.683Z,66.55
2023-02-03T12:03:03.736Z,66.06
2023-02-03T12:04:03.729Z,67.03
2023-02-03T12:05:03.646Z,68.96
2023-02-03T12:06:03.643Z,65.26
2023-02-03T12:07:03.637Z,66.06
2023-02-03T12:08:03.623Z,65.42
2023-02-03T12:09:03.607Z,66.87
2023-02-03T12:10:03.609Z,66.06
2023-02-03T12:11:03.627Z,65.26
2023-02-03T12:12:03.590Z,65.26
2023-02-03T12:13:03.610Z,67.68
2023-02-03T12:14:03.589Z,66.71
2023-02-03T12:15:03.584Z,70.58
2023-02-03T12:16:03.669Z,66.23
2023-02-03T12:17:03.572Z,66.39
2023-02-03T12:18:03.562Z,66.39
2023-02-03T12:19:03.560Z,65.58
2023-02-03T12:20:03.540Z,66.06
2023-02-03T12:21:03.581Z,67.03
2023-02-03T12:22:03.541Z,66.06
2023-02-03T12:23:03.525Z,65.90
2023-02-03T12:24:03.533Z,64.61
2023-02-03T12:25:03.514Z,66.87
2023-02-03T12:26:03.557Z,66.71
2023-02-03T12:27:03.497Z,65.42
2023-02-03T12:28:03.584Z,65.90
2023-02-03T12:29:03.516Z,65.26
2023-02-03T12:30:03.492Z,67.51
2023-02-03T12:31:03.496Z,65.42
2023-02-03T12:32:03.529Z,64.78
2023-02-03T12:33:03.460Z,66.71
2023-02-03T12:34:03.582Z,65.10
2023-02-03T12:35:03.462Z,65.58
2023-02-03T12:36:03.458Z,68.00
2023-02-03T12:37:03.477Z,66.71
2023-02-03T12:38:03.429Z,65.42
2023-02-03T12:39:03.415Z,66.71
2023-02-03T12:40:03.434Z,65.26
2023-02-03T12:41:03.430Z,64.78
2023-02-03T12:42:03.415Z,68.80
2023-02-03T12:43:03.392Z,66.55
2023-02-03T12:44:03.388Z,65.74
2023-02-03T12:45:03.401Z,66.23
2023-02-03T12:46:03.424Z,65.58
2023-02-03T12:47:03.389Z,65.42
2023-02-03T12:48:03.365Z,64.61
2023-02-03T12:49:03.356Z,64.13
2023-02-03T12:50:03.407Z,67.84
2023-02-03T12:51:03.359Z,66.23
2023-02-03T12:52:03.349Z,66.39